createdAt,value
2022-12-15T00:00:19.594Z,100051.41
2022-12-15T00:03:25.949Z,100046.16
2022-12-15T00:06:31.426Z,100046.00
2022-12-15T00:09:35.381Z,100048.25
2022-12-15T00:12:39.568Z,100050.47
2022-12-15T00:15:43.808Z,100058.66
2022-12-15T00:18:47.858Z,100053.91
2022-12-15T00:21:53.868Z,100050.31
2022-12-15T00:24:58.105Z,100057.78
2022-12-15T00:28:02.324Z,100058.66
2022-12-15T00:31:06.617Z,100065.72
2022-12-15T00:34:10.883Z,100070.75
2022-12-15T00:37:16.974Z,100066.66
2022-12-15T00:40:05.432Z,100057.19
2022-12-15T00:42:52.772Z,100059.72
2022-12-15T00:45:57.613Z,100063.38
2022-12-15T00:48:45.269Z,99979.66
2022-12-15T00:51:49.126Z,100061.56
2022-12-15T00:54:54.996Z,100064.06
2022-12-15T00:57:59.680Z,100065.00
2022-12-15T01:01:03.777Z,100062.22
2022-12-15T01:04:08.423Z,100061.50
2022-12-15T01:07:13.944Z,100057.94
2022-12-15T01:10:26.009Z,100069.28
2022-12-15T01:13:33.572Z,100069.06
2022-12-15T01:16:37.903Z,100071.53
2022-12-15T01:19:42.135Z,100060.38
2022-12-15T01:22:29.000Z,100068.25
2022-12-15T01:25:19.299Z,100074.31
2022-12-15T01:28:06.508Z,100068.44
2022-12-15T01:30:53.424Z,100066.97
2022-12-15T01:33:42.782Z,100059.56
2022-12-15T01:36:29.882Z,100060.38
2022-12-15T01:39:17.214Z,100065.34
2022-12-15T01:42:04.479Z,100058.09
2022-12-15T01:44:53.226Z,100073.44
2022-12-15T01:47:39.854Z,100075.41
2022-12-15T01:50:28.116Z,100080.00
2022-12-15T01:53:16.443Z,100078.91
2022-12-15T01:56:05.389Z,99897.50
2022-12-15T01:58:57.595Z,100100.69
2022-12-15T02:01:44.465Z,100080.34
2022-12-15T02:04:37.979Z,100084.66
2022-12-15T02:07:24.997Z,100076.06
2022-12-15T02:10:12.517Z,100088.09
2022-12-15T02:13:06.270Z,100081.09
2022-12-15T02:16:01.067Z,100078.59
2022-12-15T02:19:00.285Z,100083.19
2022-12-15T02:21:57.905Z,100080.34
2022-12-15T02:25:21.006Z,100085.16
2022-12-15T02:28:12.086Z,100090.34
2022-12-15T02:31:22.039Z,100102.22
2022-12-15T02:34:15.649Z,100104.34
2022-12-15T02:37:08.458Z,100115.78
2022-12-15T02:39:55.032Z,100122.66
2022-12-15T02:42:46.520Z,100111.03
2022-12-15T02:45:41.607Z,100125.78
2022-12-15T02:48:38.782Z,100129.34
2022-12-15T02:51:41.492Z,100145.09
2022-12-15T02:54:43.760Z,100141.34
2022-12-15T02:57:38.953Z,100142.25
2022-12-15T03:00:25.827Z,100162.97
2022-12-15T03:03:14.976Z,100154.34
2022-12-15T03:06:05.367Z,100152.19
2022-12-15T03:08:52.292Z,100152.91
2022-12-15T03:11:39.699Z,100159.09
2022-12-15T03:14:26.636Z,100154.81
2022-12-15T03:17:13.481Z,100153.97
2022-12-15T03:20:00.346Z,100148.19
2022-12-15T03:22:48.529Z,100137.78
2022-12-15T03:25:35.005Z,100154.56
2022-12-15T03:28:21.792Z,100161.13
2022-12-15T03:31:08.569Z,100155.06
2022-12-15T03:33:55.496Z,100149.50
2022-12-15T03:36:42.443Z,100136.09
2022-12-15T03:39:30.758Z,100137.13
2022-12-15T03:42:37.563Z,100136.09
2022-12-15T03:45:25.684Z,100133.63
2022-12-15T03:48:12.592Z,100142.16
2022-12-15T03:50:59.389Z,100143.56
2022-12-15T03:53:47.614Z,100142.91
2022-12-15T03:56:35.914Z,100148.81
2022-12-15T03:59:22.664Z,100155.69
2022-12-15T04:02:12.510Z,100158.50
2022-12-15T04:04:59.241Z,100161.84
2022-12-15T04:07:46.880Z,100168.78
2022-12-15T04:10:36.101Z,100174.50
2022-12-15T04:13:24.061Z,100170.66
2022-12-15T04:16:19.291Z,100187.94
2022-12-15T04:19:24.360Z,100185.88
2022-12-15T04:22:17.687Z,100199.25
2022-12-15T04:25:23.549Z,100191.44
2022-12-15T04:28:29.230Z,100193.19
2022-12-15T04:31:39.123Z,100189.56
2022-12-15T04:34:43.788Z,100186.75
2022-12-15T04:37:48.104Z,100185.59
2022-12-15T04:40:52.352Z,100185.72
2022-12-15T04:43:56.504Z,100192.06
2022-12-15T04:47:02.662Z,100192.28
2022-12-15T04:50:06.865Z,100205.22
2022-12-15T04:53:11.008Z,100209.34
2022-12-15T04:56:18.604Z,100211.34
2022-12-15T04:59:23.591Z,100216.69
2022-12-15T05:02:29.276Z,100212.66
2022-12-15T05:05:33.678Z,100207.53
2022-12-15T05:08:37.926Z,100218.47
2022-12-15T05:11:42.007Z,100221.72
2022-12-15T05:14:46.247Z,100223.47
2022-12-15T05:17:55.092Z,100232.16
2022-12-15T05:20:59.248Z,100233.75
2022-12-15T05:24:03.428Z,100234.72
2022-12-15T05:27:07.610Z,100237.91
2022-12-15T05:30:11.559Z,100235.88
2022-12-15T05:32:59.712Z,100226.44
2022-12-15T05:35:46.563Z,100223.03
2022-12-15T05:38:33.936Z,100227.31
2022-12-15T05:41:22.301Z,100227.69
2022-12-15T05:44:09.266Z,100234.25
2022-12-15T05:46:56.100Z,100247.38
2022-12-15T05:49:44.078Z,100249.06
2022-12-15T05:52:30.742Z,100252.03
2022-12-15T05:55:18.033Z,100256.34
2022-12-15T05:58:05.023Z,100171.50
2022-12-15T06:00:51.693Z,100231.19
2022-12-15T06:03:39.475Z,100250.84
2022-12-15T06:06:27.812Z,100262.16
2022-12-15T06:09:14.249Z,100276.22
2022-12-15T06:12:01.076Z,100274.44
2022-12-15T06:14:48.014Z,100269.66
2022-12-15T06:17:36.960Z,100281.72
2022-12-15T06:20:24.387Z,100298.03
2022-12-15T06:23:12.923Z,100299.13
2022-12-15T06:26:00.813Z,100285.84
2022-12-15T06:28:48.693Z,100273.19
2022-12-15T06:31:36.214Z,100271.19
2022-12-15T06:34:22.864Z,100271.09
2022-12-15T06:37:09.742Z,100281.81
2022-12-15T06:39:57.848Z,100272.41
2022-12-15T06:42:44.926Z,100274.19
2022-12-15T06:45:31.749Z,100282.72
2022-12-15T06:48:19.297Z,100289.78
2022-12-15T06:51:14.970Z,100300.41
2022-12-15T06:54:03.770Z,100310.25
2022-12-15T06:56:51.725Z,100321.03
2022-12-15T06:59:39.287Z,100325.94
2022-12-15T07:02:29.146Z,100320.81
2022-12-15T07:05:16.630Z,100320.03
2022-12-15T07:08:03.487Z,100325.03
2022-12-15T07:10:50.092Z,100330.59
2022-12-15T07:13:38.549Z,100343.56
2022-12-15T07:16:26.823Z,100337.94
2022-12-15T07:19:14.111Z,100358.81
2022-12-15T07:22:01.544Z,100364.28
2022-12-15T07:24:48.567Z,100356.69
2022-12-15T07:27:35.396Z,100367.13
2022-12-15T07:30:23.571Z,100368.69
2022-12-15T07:33:10.410Z,100367.47
2022-12-15T07:35:57.176Z,100384.88
2022-12-15T07:38:49.864Z,100384.81
2022-12-15T07:41:40.457Z,100385.94
2022-12-15T07:44:27.065Z,100392.13
2022-12-15T07:47:15.308Z,100397.38
2022-12-15T07:50:02.186Z,100407.00
2022-12-15T07:52:49.022Z,100406.09
2022-12-15T07:55:57.570Z,100406.19
2022-12-15T07:58:42.810Z,100398.09
2022-12-15T08:01:30.057Z,100411.47
2022-12-15T08:04:18.663Z,100415.38
2022-12-15T08:07:05.590Z,100421.19
2022-12-15T08:09:54.010Z,100432.03
2022-12-15T08:12:40.732Z,100415.69
2022-12-15T08:15:27.563Z,100427.59
2022-12-15T08:18:14.983Z,100427.31
2022-12-15T08:21:05.107Z,100439.34
2022-12-15T08:23:52.116Z,100436.38
2022-12-15T08:26:39.751Z,100436.47
2022-12-15T08:32:33.602Z,100425.31
2022-12-15T08:35:54.335Z,100432.09
2022-12-15T08:38:28.500Z,100439.34
2022-12-15T08:41:17.510Z,100446.72
2022-12-15T08:44:04.807Z,100449.16
2022-12-15T08:46:52.410Z,100453.78
2022-12-15T08:49:40.185Z,100456.34
2022-12-15T08:52:27.038Z,100459.63
2022-12-15T08:55:22.153Z,100463.81
2022-12-15T08:58:09.365Z,100461.75
2022-12-15T09:01:07.287Z,100464.91
2022-12-15T09:03:55.853Z,100449.94
2022-12-15T09:06:42.609Z,100455.38
2022-12-15T09:09:29.146Z,100459.97
2022-12-15T09:12:17.189Z,100462.22
2022-12-15T09:15:03.959Z,100470.56
2022-12-15T09:17:50.835Z,100414.97
2022-12-15T09:20:37.595Z,100477.00
2022-12-15T09:23:25.083Z,100474.69
2022-12-15T09:26:15.563Z,100443.09
2022-12-15T09:29:03.683Z,100477.06
2022-12-15T09:31:50.496Z,100479.69
2022-12-15T09:34:41.672Z,100482.91
2022-12-15T09:37:28.798Z,100485.47
2022-12-15T09:40:15.705Z,100488.94
2022-12-15T09:43:32.732Z,100487.63
2022-12-15T09:46:27.897Z,100485.41
2022-12-15T09:49:25.125Z,100484.09
2022-12-15T09:52:14.463Z,100486.69
2022-12-15T09:55:02.917Z,100394.13
2022-12-15T09:57:54.174Z,100492.56
2022-12-15T10:00:46.262Z,100490.00
2022-12-15T10:03:50.142Z,100486.38
2022-12-15T10:06:50.636Z,100490.13
2022-12-15T10:09:38.542Z,100487.69
2022-12-15T10:12:30.966Z,100485.59
2022-12-15T10:15:24.179Z,100482.09
2022-12-15T10:18:20.862Z,100478.34
2022-12-15T10:21:14.399Z,100479.09
2022-12-15T10:24:17.612Z,100471.41
2022-12-15T10:27:44.051Z,100471.41
2022-12-15T10:30:42.368Z,100471.28
2022-12-15T10:33:34.572Z,100473.03
2022-12-15T10:36:23.163Z,100478.53
2022-12-15T10:39:12.954Z,100474.47
2022-12-15T10:42:17.619Z,100475.97
2022-12-15T10:45:06.954Z,100481.50
2022-12-15T10:48:02.492Z,100486.06
2022-12-15T10:50:50.256Z,100490.91
2022-12-15T10:53:45.256Z,100491.28
2022-12-15T10:56:50.233Z,100487.09
2022-12-15T10:59:39.241Z,100495.13
2022-12-15T11:02:32.755Z,100497.16
2022-12-15T11:05:19.967Z,100490.78
2022-12-15T11:08:16.304Z,100496.06
2022-12-15T11:11:26.025Z,100490.44
2022-12-15T11:14:16.509Z,100503.53
2022-12-15T11:17:08.276Z,100508.03
2022-12-15T11:20:03.263Z,100502.22
2022-12-15T11:22:57.669Z,100505.44
2022-12-15T11:25:52.695Z,100509.03
2022-12-15T11:28:47.197Z,100508.56
2022-12-15T11:31:39.503Z,100504.28
2022-12-15T11:34:32.432Z,100514.44
2022-12-15T11:37:41.337Z,100521.56
2022-12-15T11:40:40.728Z,100515.16
2022-12-15T11:44:06.547Z,100519.47
2022-12-15T11:47:04.961Z,100512.59
2022-12-15T11:50:25.846Z,100515.38
2022-12-15T11:53:32.761Z,100512.56
2022-12-15T11:56:27.689Z,100514.66
2022-12-15T11:59:53.417Z,100517.13
2022-12-15T12:03:05.647Z,100518.38
2022-12-15T12:06:12.753Z,100517.03
2022-12-15T12:09:13.985Z,100461.41
2022-12-15T12:12:12.136Z,100434.09
2022-12-15T12:15:21.271Z,100513.81
2022-12-15T12:18:19.080Z,100491.78
2022-12-15T12:21:10.204Z,100513.22
2022-12-15T12:24:01.836Z,100462.53
2022-12-15T12:26:53.396Z,100512.88
2022-12-15T12:29:45.405Z,100505.84
2022-12-15T12:32:44.947Z,100504.03
2022-12-15T12:35:39.883Z,100504.22
2022-12-15T12:38:32.590Z,100503.47
2022-12-15T12:41:28.695Z,100502.56
2022-12-15T12:44:27.369Z,100504.44
2022-12-15T12:47:20.773Z,100505.09
2022-12-15T12:50:15.782Z,100490.88
2022-12-15T12:53:05.156Z,100494.81
2022-12-15T12:55:52.160Z,100487.16
2022-12-15T12:58:41.519Z,100506.72
2022-12-15T13:01:32.148Z,100515.34
2022-12-15T13:04:41.315Z,100507.63
2022-12-15T13:07:34.812Z,100510.88
2022-12-15T13:10:24.838Z,100518.47
2022-12-15T13:13:37.328Z,100526.50
2022-12-15T13:16:26.914Z,100525.41
2022-12-15T13:19:14.381Z,100522.78
2022-12-15T13:22:01.649Z,100523.22
2022-12-15T13:28:01.018Z,100514.13
2022-12-15T13:31:30.063Z,100514.69
2022-12-15T13:34:27.248Z,100520.13
2022-12-15T13:37:43.706Z,100514.06
2022-12-15T13:40:36.848Z,100521.69
2022-12-15T13:43:44.662Z,100515.72
2022-12-15T13:46:35.755Z,100516.16
2022-12-15T13:49:28.159Z,100536.78
2022-12-15T13:53:07.969Z,100540.19
2022-12-15T13:55:39.075Z,100546.94
2022-12-15T13:58:29.483Z,100542.88
2022-12-15T14:01:32.030Z,100537.50
2022-12-15T14:04:21.896Z,100541.47
2022-12-15T14:07:08.560Z,100537.78
2022-12-15T14:09:55.098Z,100539.53
2022-12-15T14:12:41.672Z,100538.84
2022-12-15T14:15:31.860Z,100545.38
2022-12-15T14:18:29.442Z,100546.06
2022-12-15T14:21:22.161Z,100544.09
2022-12-15T14:24:40.708Z,100546.47
2022-12-15T14:27:30.661Z,100544.84
2022-12-15T14:30:24.807Z,100541.94
2022-12-15T14:33:16.420Z,100540.75
2022-12-15T14:36:08.719Z,100526.56
2022-12-15T14:39:00.585Z,100534.31
2022-12-15T14:41:49.332Z,100536.03
2022-12-15T14:44:41.126Z,100540.69
2022-12-15T14:47:34.968Z,100537.88
2022-12-15T14:50:26.499Z,100531.44
2022-12-15T14:53:18.557Z,100544.31
2022-12-15T14:56:29.674Z,100541.38
2022-12-15T14:59:20.415Z,100545.69
2022-12-15T15:02:14.114Z,100539.34
2022-12-15T15:03:07.443Z,100513.09
2022-12-15T15:05:04.247Z,100545.06
2022-12-15T15:07:56.949Z,100551.72
2022-12-15T15:10:45.324Z,100556.03
2022-12-15T15:13:40.307Z,100549.00
2022-12-15T15:16:27.686Z,100548.31
2022-12-15T15:19:21.524Z,100542.88
2022-12-15T15:22:25.439Z,100543.78
2022-12-15T15:25:29.056Z,100554.97
2022-12-15T15:28:24.257Z,100558.94
2022-12-15T15:31:31.673Z,100553.09
2022-12-15T15:34:21.184Z,100544.88
2022-12-15T15:37:18.289Z,100565.53
2022-12-15T15:40:07.992Z,100568.91
2022-12-15T15:42:55.647Z,100567.84
2022-12-15T15:45:43.724Z,100560.66
2022-12-15T15:48:34.663Z,100569.44
2022-12-15T15:51:22.592Z,100568.53
2022-12-15T15:54:14.301Z,100565.41
2022-12-15T15:57:01.303Z,100567.25
2022-12-15T15:59:48.536Z,100564.72
2022-12-15T16:02:36.756Z,100407.63
2022-12-15T16:05:23.636Z,100572.81
2022-12-15T16:08:16.657Z,100565.88
2022-12-15T16:11:03.685Z,100561.16
2022-12-15T16:13:51.216Z,100566.16
2022-12-15T16:16:38.269Z,100558.31
2022-12-15T16:19:28.702Z,100551.41
2022-12-15T16:22:19.557Z,100547.03
2022-12-15T16:25:13.229Z,100551.78
2022-12-15T16:28:00.711Z,100552.50
2022-12-15T16:30:48.118Z,100561.13
2022-12-15T16:33:34.674Z,100562.66
2022-12-15T16:36:23.235Z,100579.41
2022-12-15T16:39:25.130Z,100582.41
2022-12-15T16:42:13.169Z,100583.06
2022-12-15T16:45:00.240Z,100584.59
2022-12-15T16:47:47.128Z,100589.66
2022-12-15T16:50:37.874Z,100602.50
2022-12-15T16:53:28.839Z,100602.59
2022-12-15T16:56:16.594Z,100601.47
2022-12-15T16:59:31.511Z,100598.34
2022-12-15T17:02:28.970Z,100601.00
2022-12-15T17:05:16.453Z,100572.25
2022-12-15T17:08:06.493Z,100602.50
2022-12-15T17:10:54.876Z,100595.53
2022-12-15T17:13:46.005Z,100606.78
2022-12-15T17:16:32.820Z,100608.75
2022-12-15T17:19:21.511Z,100609.31
2022-12-15T17:22:12.740Z,100611.78
2022-12-15T17:24:59.423Z,100617.16
2022-12-15T17:27:49.165Z,100616.47
2022-12-15T17:30:36.030Z,100616.53
2022-12-15T17:33:24.804Z,100601.00
2022-12-15T17:36:16.816Z,100616.38
2022-12-15T17:39:03.494Z,100616.38
2022-12-15T17:42:05.927Z,100630.75
2022-12-15T17:44:54.166Z,100628.28
2022-12-15T17:47:40.805Z,100626.16
2022-12-15T17:50:27.617Z,100635.06
2022-12-15T17:53:14.631Z,100635.91
2022-12-15T17:56:01.326Z,100634.38
2022-12-15T17:58:48.301Z,100635.94
2022-12-15T18:01:36.658Z,100643.38
2022-12-15T18:04:23.505Z,100637.56
2022-12-15T18:07:16.465Z,100648.44
2022-12-15T18:10:03.563Z,100648.66
2022-12-15T18:12:50.309Z,100656.03
2022-12-15T18:15:37.119Z,100660.22
2022-12-15T18:18:26.226Z,100663.50
2022-12-15T18:21:15.653Z,100663.94
2022-12-15T18:24:02.516Z,100668.47
2022-12-15T18:26:49.503Z,100665.16
2022-12-15T18:29:36.374Z,100664.63
2022-12-15T18:32:25.611Z,100654.72
2022-12-15T18:35:20.729Z,100655.31
2022-12-15T18:38:15.506Z,100661.59
2022-12-15T18:41:04.362Z,100667.31
2022-12-15T18:43:51.643Z,100671.09
2022-12-15T18:46:42.008Z,100677.72
2022-12-15T18:49:31.360Z,100677.84
2022-12-15T18:52:21.595Z,100675.66
2022-12-15T18:55:21.264Z,100663.47
2022-12-15T18:58:22.582Z,100666.78
2022-12-15T19:01:10.729Z,100673.31
2022-12-15T19:03:57.869Z,100675.63
2022-12-15T19:06:45.975Z,100663.00
2022-12-15T19:09:33.937Z,100668.56
2022-12-15T19:12:20.920Z,100671.97
2022-12-15T19:15:08.324Z,100673.28
2022-12-15T19:18:12.259Z,100671.22
2022-12-15T19:21:16.847Z,100669.25
2022-12-15T19:24:04.568Z,100670.78
2022-12-15T19:26:52.554Z,100684.25
2022-12-15T19:29:40.380Z,100681.25
2022-12-15T19:32:27.427Z,100683.38
2022-12-15T19:35:14.353Z,100669.38
2022-12-15T19:38:04.540Z,100676.44
2022-12-15T19:40:53.757Z,100671.84
2022-12-15T19:43:42.433Z,100674.94
2022-12-15T19:46:29.079Z,100668.31
2022-12-15T19:49:15.646Z,100668.41
2022-12-15T19:52:02.452Z,100680.66
2022-12-15T19:54:50.883Z,100673.41
2022-12-15T19:57:37.475Z,100681.19
2022-12-15T20:00:27.038Z,100671.53
2022-12-15T20:03:13.927Z,100679.53
2022-12-15T20:06:02.815Z,100689.41
2022-12-15T20:08:52.516Z,100689.41
2022-12-15T20:11:41.611Z,100694.44
2022-12-15T20:14:28.406Z,100692.63
2022-12-15T20:17:16.783Z,100688.09
2022-12-15T20:20:03.716Z,100688.97
2022-12-15T20:22:54.811Z,100689.78
2022-12-15T20:25:42.097Z,100688.91
2022-12-15T20:28:30.873Z,100683.47
2022-12-15T20:31:20.701Z,100675.16
2022-12-15T20:34:08.960Z,100666.91
2022-12-15T20:36:55.949Z,100681.25
2022-12-15T20:39:42.685Z,100685.28
2022-12-15T20:42:29.548Z,100689.63
2022-12-15T20:45:17.541Z,100692.66
2022-12-15T20:48:04.217Z,100698.16
2022-12-15T20:50:53.442Z,100694.28
2022-12-15T20:53:40.220Z,100698.44
2022-12-15T20:56:28.161Z,100694.16
2022-12-15T20:59:15.415Z,100694.88
2022-12-15T21:02:02.578Z,100703.59
2022-12-15T21:04:50.730Z,100699.88
2022-12-15T21:07:38.721Z,100699.88
2022-12-15T21:10:25.435Z,100699.28
2022-12-15T21:13:19.624Z,100703.16
2022-12-15T21:16:06.698Z,100706.19
2022-12-15T21:22:00.624Z,100709.94
2022-12-15T21:24:50.792Z,100706.94
2022-12-15T21:27:38.193Z,100717.38
2022-12-15T21:30:25.832Z,100721.66
2022-12-15T21:33:12.730Z,100722.97
2022-12-15T21:35:59.830Z,100717.38
2022-12-15T21:38:48.979Z,100723.88
2022-12-15T21:41:39.929Z,100722.94
2022-12-15T21:44:26.595Z,100720.50
2022-12-15T21:47:24.950Z,100727.91
2022-12-15T21:50:10.511Z,100724.59
2022-12-15T21:52:57.764Z,100731.03
2022-12-15T21:55:47.566Z,100719.47
2022-12-15T21:58:35.818Z,100708.81
2022-12-15T22:01:25.206Z,100726.63
2022-12-15T22:04:18.883Z,100732.19
2022-12-15T22:07:07.592Z,100734.56
2022-12-15T22:09:55.094Z,100745.72
2022-12-15T22:12:43.142Z,100741.06
2022-12-15T22:15:31.356Z,100741.00
2022-12-15T22:18:22.454Z,100740.69
2022-12-15T22:21:09.141Z,100750.53
2022-12-15T22:23:56.388Z,100751.69
2022-12-15T22:26:43.683Z,100744.53
2022-12-15T22:29:31.750Z,100742.72
2022-12-15T22:32:19.969Z,100742.72
2022-12-15T22:35:14.664Z,100745.03
2022-12-15T22:38:01.974Z,100742.94
2022-12-15T22:40:50.202Z,100733.59
2022-12-15T22:43:39.212Z,100733.00
2022-12-15T22:46:26.318Z,100731.31
2022-12-15T22:49:17.625Z,100727.78
2022-12-15T22:52:04.984Z,100726.97
2022-12-15T22:54:54.155Z,100728.75
2022-12-15T22:57:41.608Z,100724.41
2022-12-15T23:00:28.560Z,100726.84
2022-12-15T23:03:15.248Z,100731.03
2022-12-15T23:06:04.448Z,100724.81
2022-12-15T23:08:55.736Z,100715.91
2022-12-15T23:11:42.209Z,100725.97
2022-12-15T23:14:44.043Z,100678.06
2022-12-15T23:17:30.534Z,100729.09
2022-12-15T23:20:17.436Z,100734.31
2022-12-15T23:23:05.923Z,100721.88
2022-12-15T23:25:53.443Z,100733.09
2022-12-15T23:28:40.327Z,100736.72
2022-12-15T23:31:27.222Z,100732.78
2022-12-15T23:34:14.619Z,100734.16
2022-12-15T23:37:02.467Z,100737.38
2022-12-15T23:39:50.483Z,100732.91
2022-12-15T23:42:39.413Z,100739.25
2022-12-15T23:45:26.191Z,100743.22
2022-12-15T23:48:14.463Z,100744.38
2022-12-15T23:51:09.608Z,100741.53
2022-12-15T23:53:56.131Z,100744.91
2022-12-15T23:56:44.832Z,100747.97
2022-12-15T23:59:31.520Z,100738.38
